sensor_id;sensor_type;location;lat;lon;timestamp;temperature;humidity
698;DHT22;331;48.414;9.938;2022-12-31T00:00:44;8.70;99.90
698;DHT22;331;48.414;9.938;2022-12-31T00:03:11;8.80;99.90
698;DHT22;331;48.414;9.938;2022-12-31T00:05:38;8.80;99.90
698;DHT22;331;48.414;9.938;2022-12-31T00:08:05;8.80;99.90
698;DHT22;331;48.414;9.938;2022-12-31T00:10:33;8.80;99.90
698;DHT22;331;48.414;9.938;2022-12-31T00:13:06;8.80;99.90
698;DHT22;331;48.414;9.938;2022-12-31T00:15:33;8.90;99.90
698;DHT22;331;48.414;9.938;2022-12-31T00:18:00;8.80;99.90
698;DHT22;331;48.414;9.938;2022-12-31T00:20:27;8.90;99.90
698;DHT22;331;48.414;9.938;2022-12-31T00:22:56;9.10;99.90
698;DHT22;331;48.414;9.938;2022-12-31T00:25:23;8.80;99.90
698;DHT22;331;48.414;9.938;2022-12-31T00:27:51;8.90;99.90
698;DHT22;331;48.414;9.938;2022-12-31T00:30:19;8.90;99.90
698;DHT22;331;48.414;9.938;2022-12-31T00:32:45;9.00;99.90
698;DHT22;331;48.414;9.938;2022-12-31T00:35:12;9.00;99.90
698;DHT22;331;48.414;9.938;2022-12-31T00:37:39;9.00;99.90
698;DHT22;331;48.414;9.938;2022-12-31T00:40:07;9.00;99.90
698;DHT22;331;48.414;9.938;2022-12-31T00:42:34;9.00;99.90
698;DHT22;331;48.414;9.938;2022-12-31T00:45:02;9.00;99.90
698;DHT22;331;48.414;9.938;2022-12-31T00:47:29;9.00;99.90
698;DHT22;331;48.414;9.938;2022-12-31T00:49:56;9.10;99.90
698;DHT22;331;48.414;9.938;2022-12-31T00:52:23;9.10;99.90
698;DHT22;331;48.414;9.938;2022-12-31T00:54:49;9.10;99.90
698;DHT22;331;48.414;9.938;2022-12-31T00:57:16;9.10;99.90
698;DHT22;331;48.414;9.938;2022-12-31T00:59:43;9.10;99.90
698;DHT22;331;48.414;9.938;2022-12-31T01:02:14;9.10;99.90
698;DHT22;331;48.414;9.938;2022-12-31T01:04:41;9.20;99.90
698;DHT22;331;48.414;9.938;2022-12-31T01:07:09;9.20;99.90
698;DHT22;331;48.414;9.938;2022-12-31T01:09:36;9.20;99.90
698;DHT22;331;48.414;9.938;2022-12-31T01:12:03;9.20;99.90
698;DHT22;331;48.414;9.938;2022-12-31T01:14:30;9.20;99.90
698;DHT22;331;48.414;9.938;2022-12-31T01:16:58;9.20;99.90
698;DHT22;331;48.414;9.938;2022-12-31T01:19:27;9.20;99.90
698;DHT22;331;48.414;9.938;2022-12-31T01:21:54;9.20;99.90
698;DHT22;331;48.414;9.938;2022-12-31T01:24:21;9.30;99.90
698;DHT22;331;48.414;9.938;2022-12-31T01:26:48;9.30;99.90
698;DHT22;331;48.414;9.938;2022-12-31T01:29:15;9.30;99.90
698;DHT22;331;48.414;9.938;2022-12-31T01:31:42;9.30;99.90
698;DHT22;331;48.414;9.938;2022-12-31T01:34:09;9.30;99.90
698;DHT22;331;48.414;9.938;2022-12-31T01:36:37;9.30;99.90
698;DHT22;331;48.414;9.938;2022-12-31T01:39:04;9.30;99.90
698;DHT22;331;48.414;9.938;2022-12-31T01:41:33;9.30;99.90
698;DHT22;331;48.414;9.938;2022-12-31T01:44:00;9.30;99.90
698;DHT22;331;48.414;9.938;2022-12-31T01:46:30;9.30;99.90
698;DHT22;331;48.414;9.938;2022-12-31T01:48:59;9.30;99.90
698;DHT22;331;48.414;9.938;2022-12-31T01:51:27;9.30;99.90
698;DHT22;331;48.414;9.938;2022-12-31T01:53:57;9.30;99.90
698;DHT22;331;48.414;9.938;2022-12-31T01:56:24;9.30;99.90
698;DHT22;331;48.414;9.938;2022-12-31T01:58:52;9.30;99.90
698;DHT22;331;48.414;9.938;2022-12-31T02:01:22;9.40;99.90
698;DHT22;331;48.414;9.938;2022-12-31T02:03:50;9.30;99.90
698;DHT22;331;48.414;9.938;2022-12-31T02:06:17;9.30;99.90
698;DHT22;331;48.414;9.938;2022-12-31T02:08:45;9.30;99.90
698;DHT22;331;48.414;9.938;2022-12-31T02:11:21;9.40;99.90
698;DHT22;331;48.414;9.938;2022-12-31T02:13:48;9.40;99.90
698;DHT22;331;48.414;9.938;2022-12-31T02:16:17;9.30;99.90
698;DHT22;331;48.414;9.938;2022-12-31T02:18:47;9.40;99.90
698;DHT22;331;48.414;9.938;2022-12-31T02:21:19;9.30;99.90
698;DHT22;331;48.414;9.938;2022-12-31T02:23:54;9.40;99.90
698;DHT22;331;48.414;9.938;2022-12-31T02:26:33;9.40;99.90
698;DHT22;331;48.414;9.938;2022-12-31T02:29:09;9.40;99.90
698;DHT22;331;48.414;9.938;2022-12-31T02:31:42;9.40;99.90
698;DHT22;331;48.414;9.938;2022-12-31T02:34:12;9.40;99.90
698;DHT22;331;48.414;9.938;2022-12-31T02:36:43;9.40;99.90
698;DHT22;331;48.414;9.938;2022-12-31T02:39:10;9.40;99.90
698;DHT22;331;48.414;9.938;2022-12-31T02:41:38;9.40;99.90
698;DHT22;331;48.414;9.938;2022-12-31T02:44:20;9.40;99.90
698;DHT22;331;48.414;9.938;2022-12-31T02:46:50;9.40;99.90
698;DHT22;331;48.414;9.938;2022-12-31T02:49:20;9.40;99.90
698;DHT22;331;48.414;9.938;2022-12-31T02:51:50;9.40;99.90
698;DHT22;331;48.414;9.938;2022-12-31T02:54:21;9.40;99.90
698;DHT22;331;48.414;9.938;2022-12-31T02:56:57;9.40;99.90
698;DHT22;331;48.414;9.938;2022-12-31T02:59:25;9.40;99.90
698;DHT22;331;48.414;9.938;2022-12-31T03:02:14;9.40;99.90
698;DHT22;331;48.414;9.938;2022-12-31T03:04:45;9.40;99.90
698;DHT22;331;48.414;9.938;2022-12-31T03:07:13;9.40;99.90
698;DHT22;331;48.414;9.938;2022-12-31T03:09:40;9.40;99.90
698;DHT22;331;48.414;9.938;2022-12-31T03:12:09;9.40;99.90
698;DHT22;331;48.414;9.938;2022-12-31T03:14:50;9.40;99.90
698;DHT22;331;48.414;9.938;2022-12-31T03:17:18;9.50;99.90
698;DHT22;331;48.414;9.938;2022-12-31T03:19:45;9.40;99.90
698;DHT22;331;48.414;9.938;2022-12-31T03:22:30;9.50;99.90
698;DHT22;331;48.414;9.938;2022-12-31T03:24:57;9.50;99.90
698;DHT22;331;48.414;9.938;2022-12-31T03:27:43;9.50;99.90
698;DHT22;331;48.414;9.938;2022-12-31T03:30:11;9.50;99.90
698;DHT22;331;48.414;9.938;2022-12-31T03:32:40;9.50;99.90
698;DHT22;331;48.414;9.938;2022-12-31T03:35:08;9.50;99.90
698;DHT22;331;48.414;9.938;2022-12-31T03:37:36;9.50;99.90
698;DHT22;331;48.414;9.938;2022-12-31T03:40:03;9.60;99.90
698;DHT22;331;48.414;9.938;2022-12-31T03:42:30;9.60;99.90
698;DHT22;331;48.414;9.938;2022-12-31T03:44:57;9.60;99.90
698;DHT22;331;48.414;9.938;2022-12-31T03:47:24;9.60;99.90
698;DHT22;331;48.414;9.938;2022-12-31T03:49:52;9.60;99.90
698;DHT22;331;48.414;9.938;2022-12-31T03:52:19;9.60;99.90
698;DHT22;331;48.414;9.938;2022-12-31T03:54:46;9.60;99.90
698;DHT22;331;48.414;9.938;2022-12-31T03:57:13;9.60;99.90
698;DHT22;331;48.414;9.938;2022-12-31T03:59:39;9.60;99.90
698;DHT22;331;48.414;9.938;2022-12-31T04:02:06;9.60;99.90
698;DHT22;331;48.414;9.938;2022-12-31T04:04:33;9.60;99.90
698;DHT22;331;48.414;9.938;2022-12-31T04:07:01;9.60;99.90
698;DHT22;331;48.414;9.938;2022-12-31T04:09:28;9.60;99.90
698;DHT22;331;48.414;9.938;2022-12-31T04:11:55;9.60;99.90
698;DHT22;331;48.414;9.938;2022-12-31T04:14:22;9.70;99.90
698;DHT22;331;48.414;9.938;2022-12-31T04:16:49;9.70;99.90
698;DHT22;331;48.414;9.938;2022-12-31T04:19:16;9.70;99.90
698;DHT22;331;48.414;9.938;2022-12-31T04:21:42;9.70;99.90
698;DHT22;331;48.414;9.938;2022-12-31T04:24:11;9.80;99.90
698;DHT22;331;48.414;9.938;2022-12-31T04:26:38;9.70;99.90
698;DHT22;331;48.414;9.938;2022-12-31T04:29:05;9.70;99.90
698;DHT22;331;48.414;9.938;2022-12-31T04:31:31;9.80;99.90
698;DHT22;331;48.414;9.938;2022-12-31T04:33:58;9.80;99.90
698;DHT22;331;48.414;9.938;2022-12-31T04:36:25;9.80;99.90
698;DHT22;331;48.414;9.938;2022-12-31T04:38:52;9.80;99.90
698;DHT22;331;48.414;9.938;2022-12-31T04:41:20;9.80;99.90
698;DHT22;331;48.414;9.938;2022-12-31T04:43:49;9.80;99.90
698;DHT22;331;48.414;9.938;2022-12-31T04:46:17;9.80;99.90
698;DHT22;331;48.414;9.938;2022-12-31T04:48:44;9.80;99.90
698;DHT22;331;48.414;9.938;2022-12-31T04:51:11;9.80;99.90
698;DHT22;331;48.414;9.938;2022-12-31T04:53:38;9.80;99.90
698;DHT22;331;48.414;9.938;2022-12-31T04:56:06;9.80;99.90
698;DHT22;331;48.414;9.938;2022-12-31T04:58:34;9.80;99.90
698;DHT22;331;48.414;9.938;2022-12-31T05:01:01;9.80;99.90
698;DHT22;331;48.414;9.938;2022-12-31T05:03:28;9.80;99.90
698;DHT22;331;48.414;9.938;2022-12-31T05:06:00;9.80;99.90
698;DHT22;331;48.414;9.938;2022-12-31T05:08:27;9.80;99.90
698;DHT22;331;48.414;9.938;2022-12-31T05:10:54;9.80;99.90
698;DHT22;331;48.414;9.938;2022-12-31T05:13:21;9.80;99.90
698;DHT22;331;48.414;9.938;2022-12-31T05:15:50;9.80;99.90
698;DHT22;331;48.414;9.938;2022-12-31T05:18:17;9.80;99.90
698;DHT22;331;48.414;9.938;2022-12-31T05:20:44;9.80;99.90
698;DHT22;331;48.414;9.938;2022-12-31T05:23:10;9.80;99.90
698;DHT22;331;48.414;9.938;2022-12-31T05:25:37;9.80;99.90
698;DHT22;331;48.414;9.938;2022-12-31T05:28:04;9.80;99.90
698;DHT22;331;48.414;9.938;2022-12-31T05:30:31;9.80;99.90
698;DHT22;331;48.414;9.938;2022-12-31T05:32:59;9.80;99.90
698;DHT22;331;48.414;9.938;2022-12-31T05:35:26;9.80;99.90
698;DHT22;331;48.414;9.938;2022-12-31T05:37:53;9.80;99.90
698;DHT22;331;48.414;9.938;2022-12-31T05:40:20;9.90;99.90
698;DHT22;331;48.414;9.938;2022-12-31T05:42:50;9.80;99.90
698;DHT22;331;48.414;9.938;2022-12-31T05:45:16;9.90;99.90
698;DHT22;331;48.414;9.938;2022-12-31T05:47:46;9.90;99.90
698;DHT22;331;48.414;9.938;2022-12-31T05:50:16;9.90;99.90
698;DHT22;331;48.414;9.938;2022-12-31T05:52:43;9.90;99.90
698;DHT22;331;48.414;9.938;2022-12-31T05:55:12;9.90;99.90
698;DHT22;331;48.414;9.938;2022-12-31T05:57:39;9.90;99.90
698;DHT22;331;48.414;9.938;2022-12-31T06:00:07;9.90;99.90
698;DHT22;331;48.414;9.938;2022-12-31T06:02:39;9.90;99.90
698;DHT22;331;48.414;9.938;2022-12-31T06:05:06;9.90;99.90
698;DHT22;331;48.414;9.938;2022-12-31T06:07:34;9.90;99.90
698;DHT22;331;48.414;9.938;2022-12-31T06:10:03;9.90;99.90
698;DHT22;331;48.414;9.938;2022-12-31T06:12:30;10.00;99.90
698;DHT22;331;48.414;9.938;2022-12-31T06:14:57;10.00;99.90
698;DHT22;331;48.414;9.938;2022-12-31T06:17:23;10.00;99.90
698;DHT22;331;48.414;9.938;2022-12-31T06:19:50;9.90;99.90
698;DHT22;331;48.414;9.938;2022-12-31T06:22:17;10.00;99.90
698;DHT22;331;48.414;9.938;2022-12-31T06:24:45;10.00;99.90
698;DHT22;331;48.414;9.938;2022-12-31T06:27:12;10.00;99.90
698;DHT22;331;48.414;9.938;2022-12-31T06:29:39;10.00;99.90
698;DHT22;331;48.414;9.938;2022-12-31T06:32:06;9.90;99.90
698;DHT22;331;48.414;9.938;2022-12-31T06:34:33;10.00;99.90
698;DHT22;331;48.414;9.938;2022-12-31T06:37:00;9.90;99.90
698;DHT22;331;48.414;9.938;2022-12-31T06:39:26;9.90;99.90
698;DHT22;331;48.414;9.938;2022-12-31T06:41:55;10.00;99.90
698;DHT22;331;48.414;9.938;2022-12-31T06:44:22;9.90;99.90
698;DHT22;331;48.414;9.938;2022-12-31T06:46:51;9.90;99.90
698;DHT22;331;48.414;9.938;2022-12-31T06:49:18;10.00;99.90
698;DHT22;331;48.414;9.938;2022-12-31T06:51:45;9.90;99.90
698;DHT22;331;48.414;9.938;2022-12-31T06:54:12;9.90;99.90
698;DHT22;331;48.414;9.938;2022-12-31T06:56:39;9.90;99.90
698;DHT22;331;48.414;9.938;2022-12-31T06:59:12;9.90;99.90
698;DHT22;331;48.414;9.938;2022-12-31T07:01:42;9.90;99.90
698;DHT22;331;48.414;9.938;2022-12-31T07:04:23;9.90;99.90
698;DHT22;331;48.414;9.938;2022-12-31T07:06:52;9.90;99.90
698;DHT22;331;48.414;9.938;2022-12-31T07:09:23;10.00;99.90
698;DHT22;331;48.414;9.938;2022-12-31T07:11:53;10.00;99.90
698;DHT22;331;48.414;9.938;2022-12-31T07:14:26;9.90;99.90
698;DHT22;331;48.414;9.938;2022-12-31T07:16:56;9.90;99.90
698;DHT22;331;48.414;9.938;2022-12-31T07:19:27;9.90;99.90
698;DHT22;331;48.414;9.938;2022-12-31T07:21:57;9.90;99.90
698;DHT22;331;48.414;9.938;2022-12-31T07:24:24;9.90;99.90
698;DHT22;331;48.414;9.938;2022-12-31T07:27:04;9.90;99.90
698;DHT22;331;48.414;9.938;2022-12-31T07:29:39;9.90;99.90
698;DHT22;331;48.414;9.938;2022-12-31T07:32:16;9.90;99.90
698;DHT22;331;48.414;9.938;2022-12-31T07:34:47;9.90;99.90
698;DHT22;331;48.414;9.938;2022-12-31T07:37:18;9.90;99.90
698;DHT22;331;48.414;9.938;2022-12-31T07:39:52;9.90;99.90
698;DHT22;331;48.414;9.938;2022-12-31T07:42:23;9.90;99.90
698;DHT22;331;48.414;9.938;2022-12-31T07:44:57;9.90;99.90
698;DHT22;331;48.414;9.938;2022-12-31T07:47:26;9.90;99.90
698;DHT22;331;48.414;9.938;2022-12-31T07:49:54;9.90;99.90
698;DHT22;331;48.414;9.938;2022-12-31T07:52:21;9.90;99.90
698;DHT22;331;48.414;9.938;2022-12-31T07:54:48;9.90;99.90
698;DHT22;331;48.414;9.938;2022-12-31T07:57:16;9.90;99.90
698;DHT22;331;48.414;9.938;2022-12-31T07:59:46;10.00;99.90
698;DHT22;331;48.414;9.938;2022-12-31T08:02:18;10.00;99.90
698;DHT22;331;48.414;9.938;2022-12-31T08:04:51;10.00;99.90
698;DHT22;331;48.414;9.938;2022-12-31T08:07:24;10.00;99.90
698;DHT22;331;48.414;9.938;2022-12-31T08:09:55;10.00;99.90
698;DHT22;331;48.414;9.938;2022-12-31T08:12:24;10.00;99.90
698;DHT22;331;48.414;9.938;2022-12-31T08:14:53;10.00;99.90
698;DHT22;331;48.414;9.938;2022-12-31T08:17:21;10.00;99.90
698;DHT22;331;48.414;9.938;2022-12-31T08:19:48;10.00;99.90
698;DHT22;331;48.414;9.938;2022-12-31T08:22:28;10.00;99.90
698;DHT22;331;48.414;9.938;2022-12-31T08:25:06;10.00;99.90
698;DHT22;331;48.414;9.938;2022-12-31T08:27:36;9.90;99.90
698;DHT22;331;48.414;9.938;2022-12-31T08:30:08;10.00;99.90
698;DHT22;331;48.414;9.938;2022-12-31T08:32:39;10.00;99.90
698;DHT22;331;48.414;9.938;2022-12-31T08:35:13;10.00;99.90
698;DHT22;331;48.414;9.938;2022-12-31T08:37:49;10.00;99.90
698;DHT22;331;48.414;9.938;2022-12-31T08:40:19;10.00;99.90
698;DHT22;331;48.414;9.938;2022-12-31T08:42:53;10.00;99.90
698;DHT22;331;48.414;9.938;2022-12-31T08:45:23;10.00;99.90
698;DHT22;331;48.414;9.938;2022-12-31T08:47:54;10.00;99.90
698;DHT22;331;48.414;9.938;2022-12-31T08:50:24;10.00;99.90
698;DHT22;331;48.414;9.938;2022-12-31T08:52:51;10.00;99.90
698;DHT22;331;48.414;9.938;2022-12-31T08:55:18;10.10;99.90
698;DHT22;331;48.414;9.938;2022-12-31T08:57:48;10.00;99.90
698;DHT22;331;48.414;9.938;2022-12-31T09:00:19;10.10;99.90
698;DHT22;331;48.414;9.938;2022-12-31T09:03:09;10.00;99.90
698;DHT22;331;48.414;9.938;2022-12-31T09:05:44;10.00;99.90
698;DHT22;331;48.414;9.938;2022-12-31T09:08:14;10.10;99.90
698;DHT22;331;48.414;9.938;2022-12-31T09:10:44;10.00;99.90
698;DHT22;331;48.414;9.938;2022-12-31T09:13:14;10.10;99.90
698;DHT22;331;48.414;9.938;2022-12-31T09:15:46;10.10;99.90
698;DHT22;331;48.414;9.938;2022-12-31T09:18:15;10.10;99.90
698;DHT22;331;48.414;9.938;2022-12-31T09:20:42;10.10;99.90
698;DHT22;331;48.414;9.938;2022-12-31T09:23:09;10.10;99.90
698;DHT22;331;48.414;9.938;2022-12-31T09:25:37;10.10;99.90
698;DHT22;331;48.414;9.938;2022-12-31T09:28:10;10.10;99.90
698;DHT22;331;48.414;9.938;2022-12-31T09:30:41;10.10;99.90
698;DHT22;331;48.414;9.938;2022-12-31T09:33:10;10.10;99.90
698;DHT22;331;48.414;9.938;2022-12-31T09:35:40;10.10;99.90
698;DHT22;331;48.414;9.938;2022-12-31T09:38:11;10.10;99.90
698;DHT22;331;48.414;9.938;2022-12-31T09:40:50;10.10;99.90
698;DHT22;331;48.414;9.938;2022-12-31T09:46:08;10.20;99.90
698;DHT22;331;48.414;9.938;2022-12-31T09:48:43;10.20;99.90
698;DHT22;331;48.414;9.938;2022-12-31T09:51:19;10.20;99.90
698;DHT22;331;48.414;9.938;2022-12-31T09:53:52;10.30;99.90
698;DHT22;331;48.414;9.938;2022-12-31T09:56:22;10.30;99.90
698;DHT22;331;48.414;9.938;2022-12-31T09:58:55;10.30;99.90
698;DHT22;331;48.414;9.938;2022-12-31T10:01:30;10.30;99.90
698;DHT22;331;48.414;9.938;2022-12-31T10:04:05;10.30;99.90
698;DHT22;331;48.414;9.938;2022-12-31T10:06:37;10.40;99.90
698;DHT22;331;48.414;9.938;2022-12-31T10:09:10;10.40;99.90
698;DHT22;331;48.414;9.938;2022-12-31T10:11:50;10.40;99.90
698;DHT22;331;48.414;9.938;2022-12-31T10:14:26;10.40;99.90
698;DHT22;331;48.414;9.938;2022-12-31T10:16:58;10.30;99.90
698;DHT22;331;48.414;9.938;2022-12-31T10:19:40;10.40;99.90
698;DHT22;331;48.414;9.938;2022-12-31T10:22:21;10.40;99.90
698;DHT22;331;48.414;9.938;2022-12-31T10:25:03;10.40;99.90
698;DHT22;331;48.414;9.938;2022-12-31T10:27:40;10.50;99.90
698;DHT22;331;48.414;9.938;2022-12-31T10:30:11;10.50;99.90
698;DHT22;331;48.414;9.938;2022-12-31T10:32:41;10.50;99.90
698;DHT22;331;48.414;9.938;2022-12-31T10:35:17;10.50;99.90
698;DHT22;331;48.414;9.938;2022-12-31T10:37:52;10.50;99.90
698;DHT22;331;48.414;9.938;2022-12-31T10:40:24;10.50;99.90
698;DHT22;331;48.414;9.938;2022-12-31T10:43:00;10.50;99.90
698;DHT22;331;48.414;9.938;2022-12-31T10:45:39;10.50;99.90
698;DHT22;331;48.414;9.938;2022-12-31T10:51:25;10.60;99.90
698;DHT22;331;48.414;9.938;2022-12-31T10:54:13;10.50;99.90
698;DHT22;331;48.414;9.938;2022-12-31T10:56:59;10.50;99.90
698;DHT22;331;48.414;9.938;2022-12-31T10:59:41;10.60;99.90
698;DHT22;331;48.414;9.938;2022-12-31T11:02:20;10.60;99.90
698;DHT22;331;48.414;9.938;2022-12-31T11:07:54;10.60;99.90
698;DHT22;331;48.414;9.938;2022-12-31T11:10:34;10.70;99.90
698;DHT22;331;48.414;9.938;2022-12-31T11:18:38;10.80;99.90
698;DHT22;331;48.414;9.938;2022-12-31T11:21:08;10.80;99.90
698;DHT22;331;48.414;9.938;2022-12-31T11:23:43;10.80;99.90
698;DHT22;331;48.414;9.938;2022-12-31T11:26:15;10.80;99.90
698;DHT22;331;48.414;9.938;2022-12-31T11:28:48;10.90;99.90
698;DHT22;331;48.414;9.938;2022-12-31T11:31:34;10.90;99.90
698;DHT22;331;48.414;9.938;2022-12-31T11:34:07;10.90;99.90
698;DHT22;331;48.414;9.938;2022-12-31T11:36:39;10.90;99.90
698;DHT22;331;48.414;9.938;2022-12-31T11:39:15;10.90;99.90
698;DHT22;331;48.414;9.938;2022-12-31T11:41:48;10.90;99.90
698;DHT22;331;48.414;9.938;2022-12-31T11:44:20;10.90;99.90
698;DHT22;331;48.414;9.938;2022-12-31T11:46:54;11.00;99.90
698;DHT22;331;48.414;9.938;2022-12-31T11:49:43;11.00;99.90
698;DHT22;331;48.414;9.938;2022-12-31T11:52:24;11.00;99.90
698;DHT22;331;48.414;9.938;2022-12-31T11:54:58;11.10;99.90
698;DHT22;331;48.414;9.938;2022-12-31T11:57:30;11.00;99.90
698;DHT22;331;48.414;9.938;2022-12-31T11:59:59;11.10;99.90
698;DHT22;331;48.414;9.938;2022-12-31T12:02:27;11.00;99.90
698;DHT22;331;48.414;9.938;2022-12-31T12:04:56;11.10;99.90
698;DHT22;331;48.414;9.938;2022-12-31T12:07:23;11.10;99.90
698;DHT22;331;48.414;9.938;2022-12-31T12:09:51;11.10;99.90
698;DHT22;331;48.414;9.938;2022-12-31T12:12:20;11.20;99.90
698;DHT22;331;48.414;9.938;2022-12-31T12:14:50;11.30;99.90
698;DHT22;331;48.414;9.938;2022-12-31T12:17:21;11.30;99.90
698;DHT22;331;48.414;9.938;2022-12-31T12:19:53;11.30;99.90
698;DHT22;331;48.414;9.938;2022-12-31T12:22:21;11.30;99.90
698;DHT22;331;48.414;9.938;2022-12-31T12:24:52;11.30;99.90
698;DHT22;331;48.414;9.938;2022-12-31T12:27:21;11.30;99.90
698;DHT22;331;48.414;9.938;2022-12-31T12:29:51;11.30;99.90
698;DHT22;331;48.414;9.938;2022-12-31T12:32:19;11.40;99.90
698;DHT22;331;48.414;9.938;2022-12-31T12:34:46;11.40;99.90
698;DHT22;331;48.414;9.938;2022-12-31T12:37:27;11.40;99.90
698;DHT22;331;48.414;9.938;2022-12-31T12:39:55;11.50;99.90
698;DHT22;331;48.414;9.938;2022-12-31T12:42:22;11.40;99.90
698;DHT22;331;48.414;9.938;2022-12-31T12:45:00;11.50;99.90
698;DHT22;331;48.414;9.938;2022-12-31T12:47:27;11.50;99.90
698;DHT22;331;48.414;9.938;2022-12-31T12:49:54;11.50;99.90
698;DHT22;331;48.414;9.938;2022-12-31T12:52:31;11.50;99.90
698;DHT22;331;48.414;9.938;2022-12-31T12:55:05;11.40;99.90
698;DHT22;331;48.414;9.938;2022-12-31T12:57:34;11.50;99.90
698;DHT22;331;48.414;9.938;2022-12-31T13:02:44;11.50;99.90
698;DHT22;331;48.414;9.938;2022-12-31T13:05:18;11.50;99.90
698;DHT22;331;48.414;9.938;2022-12-31T13:07:50;11.50;99.90
698;DHT22;331;48.414;9.938;2022-12-31T13:10:22;11.50;99.90
698;DHT22;331;48.414;9.938;2022-12-31T13:12:53;11.50;99.90
698;DHT22;331;48.414;9.938;2022-12-31T13:15:23;11.50;99.90
698;DHT22;331;48.414;9.938;2022-12-31T13:17:56;11.60;99.90
698;DHT22;331;48.414;9.938;2022-12-31T13:20:25;11.50;99.90
698;DHT22;331;48.414;9.938;2022-12-31T13:22:55;11.50;99.90
698;DHT22;331;48.414;9.938;2022-12-31T13:25:25;11.60;99.90
698;DHT22;331;48.414;9.938;2022-12-31T13:27:56;11.60;99.90
698;DHT22;331;48.414;9.938;2022-12-31T13:30:25;11.60;99.90
698;DHT22;331;48.414;9.938;2022-12-31T13:32:58;11.60;99.90
698;DHT22;331;48.414;9.938;2022-12-31T13:35:26;11.60;99.90
698;DHT22;331;48.414;9.938;2022-12-31T13:37:57;11.60;99.90
698;DHT22;331;48.414;9.938;2022-12-31T13:40:27;11.60;99.90
698;DHT22;331;48.414;9.938;2022-12-31T13:42:56;11.60;99.90
698;DHT22;331;48.414;9.938;2022-12-31T13:45:26;11.60;99.90
698;DHT22;331;48.414;9.938;2022-12-31T13:47:56;11.60;99.90
698;DHT22;331;48.414;9.938;2022-12-31T13:50:30;11.60;99.90
698;DHT22;331;48.414;9.938;2022-12-31T13:53:03;11.50;99.90
698;DHT22;331;48.414;9.938;2022-12-31T13:55:32;11.60;99.90
698;DHT22;331;48.414;9.938;2022-12-31T13:58:02;11.60;99.90
698;DHT22;331;48.414;9.938;2022-12-31T14:00:32;11.60;99.90
698;DHT22;331;48.414;9.938;2022-12-31T14:03:05;11.60;99.90
698;DHT22;331;48.414;9.938;2022-12-31T14:05:35;11.60;99.90
698;DHT22;331;48.414;9.938;2022-12-31T14:08:04;11.60;99.90
698;DHT22;331;48.414;9.938;2022-12-31T14:10:35;11.60;99.90
698;DHT22;331;48.414;9.938;2022-12-31T14:13:13;11.70;99.90
698;DHT22;331;48.414;9.938;2022-12-31T14:15:46;11.70;99.90
698;DHT22;331;48.414;9.938;2022-12-31T14:18:19;11.70;99.90
698;DHT22;331;48.414;9.938;2022-12-31T14:20:48;11.70;99.90
698;DHT22;331;48.414;9.938;2022-12-31T14:23:19;11.70;99.90
698;DHT22;331;48.414;9.938;2022-12-31T14:25:50;11.70;99.90
698;DHT22;331;48.414;9.938;2022-12-31T14:28:20;11.70;99.90
698;DHT22;331;48.414;9.938;2022-12-31T14:30:51;11.70;99.90
698;DHT22;331;48.414;9.938;2022-12-31T14:33:26;11.70;99.90
698;DHT22;331;48.414;9.938;2022-12-31T14:36:02;11.70;99.90
698;DHT22;331;48.414;9.938;2022-12-31T14:38:35;11.70;99.90
698;DHT22;331;48.414;9.938;2022-12-31T14:41:09;11.70;99.90
698;DHT22;331;48.414;9.938;2022-12-31T14:43:40;11.70;99.90
698;DHT22;331;48.414;9.938;2022-12-31T14:46:13;11.70;99.90
698;DHT22;331;48.414;9.938;2022-12-31T14:48:47;11.70;99.90
698;DHT22;331;48.414;9.938;2022-12-31T14:51:18;11.70;99.90
698;DHT22;331;48.414;9.938;2022-12-31T14:53:50;11.70;99.90
698;DHT22;331;48.414;9.938;2022-12-31T14:56:26;11.70;99.90
698;DHT22;331;48.414;9.938;2022-12-31T14:58:54;11.70;99.90
698;DHT22;331;48.414;9.938;2022-12-31T15:01:22;11.70;99.90
698;DHT22;331;48.414;9.938;2022-12-31T15:03:52;11.70;99.90
698;DHT22;331;48.414;9.938;2022-12-31T15:06:32;11.70;99.90
698;DHT22;331;48.414;9.938;2022-12-31T15:09:05;11.70;99.90
698;DHT22;331;48.414;9.938;2022-12-31T15:14:30;11.70;99.90
698;DHT22;331;48.414;9.938;2022-12-31T15:17:01;11.70;99.90
698;DHT22;331;48.414;9.938;2022-12-31T15:22:18;11.70;99.90
698;DHT22;331;48.414;9.938;2022-12-31T15:24:48;11.70;99.90
698;DHT22;331;48.414;9.938;2022-12-31T15:27:22;11.70;99.90
698;DHT22;331;48.414;9.938;2022-12-31T15:29:52;11.70;99.90
698;DHT22;331;48.414;9.938;2022-12-31T15:32:19;11.70;99.90
698;DHT22;331;48.414;9.938;2022-12-31T15:34:58;11.70;99.90
698;DHT22;331;48.414;9.938;2022-12-31T15:37:28;11.70;99.90
698;DHT22;331;48.414;9.938;2022-12-31T15:40:03;11.70;99.90
698;DHT22;331;48.414;9.938;2022-12-31T15:42:39;11.70;99.90
698;DHT22;331;48.414;9.938;2022-12-31T15:45:10;11.70;99.90
698;DHT22;331;48.414;9.938;2022-12-31T15:47:42;11.70;99.90
698;DHT22;331;48.414;9.938;2022-12-31T15:50:13;11.70;99.90
698;DHT22;331;48.414;9.938;2022-12-31T15:52:45;11.70;99.90
698;DHT22;331;48.414;9.938;2022-12-31T15:55:16;11.70;99.90
698;DHT22;331;48.414;9.938;2022-12-31T15:57:45;11.60;99.90
698;DHT22;331;48.414;9.938;2022-12-31T16:00:14;11.70;99.90
698;DHT22;331;48.414;9.938;2022-12-31T16:02:42;11.70;99.90
698;DHT22;331;48.414;9.938;2022-12-31T16:05:20;11.60;99.90
698;DHT22;331;48.414;9.938;2022-12-31T16:07:51;11.60;99.90
698;DHT22;331;48.414;9.938;2022-12-31T16:10:20;11.60;99.90
698;DHT22;331;48.414;9.938;2022-12-31T16:12:48;11.60;99.90
698;DHT22;331;48.414;9.938;2022-12-31T16:15:18;11.60;99.90
698;DHT22;331;48.414;9.938;2022-12-31T16:17:45;11.60;99.90
698;DHT22;331;48.414;9.938;2022-12-31T16:20:19;11.60;99.90
698;DHT22;331;48.414;9.938;2022-12-31T16:22:49;11.60;99.90
698;DHT22;331;48.414;9.938;2022-12-31T16:25:18;11.60;99.90
698;DHT22;331;48.414;9.938;2022-12-31T16:27:47;11.60;99.90
698;DHT22;331;48.414;9.938;2022-12-31T16:30:18;11.60;99.90
698;DHT22;331;48.414;9.938;2022-12-31T16:32:49;11.60;99.90
698;DHT22;331;48.414;9.938;2022-12-31T16:35:23;11.60;99.90
698;DHT22;331;48.414;9.938;2022-12-31T16:38:00;11.60;99.90
698;DHT22;331;48.414;9.938;2022-12-31T16:40:32;11.60;99.90
698;DHT22;331;48.414;9.938;2022-12-31T16:43:02;11.60;99.90
698;DHT22;331;48.414;9.938;2022-12-31T16:45:31;11.50;99.90
698;DHT22;331;48.414;9.938;2022-12-31T16:48:05;11.50;99.90
698;DHT22;331;48.414;9.938;2022-12-31T16:50:33;11.50;99.90
698;DHT22;331;48.414;9.938;2022-12-31T16:53:03;11.50;99.90
698;DHT22;331;48.414;9.938;2022-12-31T16:55:33;11.50;99.90
698;DHT22;331;48.414;9.938;2022-12-31T16:58:10;11.50;99.90
698;DHT22;331;48.414;9.938;2022-12-31T17:00:40;11.50;99.90
698;DHT22;331;48.414;9.938;2022-12-31T17:03:12;11.50;99.90
698;DHT22;331;48.414;9.938;2022-12-31T17:05:56;11.50;99.90
698;DHT22;331;48.414;9.938;2022-12-31T17:08:28;11.40;99.90
698;DHT22;331;48.414;9.938;2022-12-31T17:11:17;11.40;99.90
698;DHT22;331;48.414;9.938;2022-12-31T17:13:51;11.40;99.90
698;DHT22;331;48.414;9.938;2022-12-31T17:16:19;11.40;99.90
698;DHT22;331;48.414;9.938;2022-12-31T17:18:46;11.40;99.90
698;DHT22;331;48.414;9.938;2022-12-31T17:21:13;11.40;99.90
698;DHT22;331;48.414;9.938;2022-12-31T17:23:40;11.40;99.90
698;DHT22;331;48.414;9.938;2022-12-31T17:26:12;11.40;99.90